Griffin, Texas
Current Conditions -  °F | °C
As of 10:55 PM on Thursday 30 Oct 2014 (Local Time) from KJSO Reporting Station
Broken Clouds Broken Clouds  
Wind Chill: 66°   Ceiling: 12000
Heat Index: 66°   Visibility: 10mi
Dew Point: 45°   Wind: 0mph
Humidity: 46%   Direction: NA
Pressure: 30.14"   Gusts: NA
Location:  32.0774°N, 95.1103°W
Report Text: KJSO 310355Z AUTO 00000KT 10SM BKN120 19/07 A3014 RMK AO2 T01910071
Loading
Personal Weather Stations






























Interactive Weather Map
Tropical Storm Tracking
New forecast layout! Learn more

10-Day Weather Forecast

Advertisements
Track Severe Weather on mobile